createdAt,value
2022-12-27T02:31:16.903Z,15.98
2022-12-27T03:08:20.811Z,9.85
2022-12-27T03:30:16.011Z,11.98
2022-12-27T03:33:32.659Z,7.25
2022-12-27T03:36:59.422Z,7.70
2022-12-27T03:40:13.255Z,7.00
2022-12-27T03:46:47.175Z,7.72
2022-12-27T03:49:26.262Z,5.28
2022-12-27T04:02:15.013Z,5.50
2022-12-27T04:12:44.011Z,5.32
2022-12-27T04:19:53.475Z,7.00
2022-12-27T04:39:06.643Z,5.13
2022-12-27T04:42:04.316Z,8.63
2022-12-27T04:48:58.040Z,10.50
2022-12-27T04:51:57.201Z,8.05
2022-12-27T04:54:51.552Z,6.38
2022-12-27T04:57:22.591Z,6.63
2022-12-27T05:00:09.860Z,8.00
2022-12-27T05:02:56.716Z,12.73
2022-12-27T05:05:38.767Z,6.13
2022-12-27T05:08:35.832Z,4.90
2022-12-27T05:11:33.579Z,9.85
2022-12-27T05:14:21.577Z,7.40
2022-12-27T05:17:03.545Z,9.00
2022-12-27T05:19:43.676Z,11.10
2022-12-27T05:22:43.921Z,9.45
2022-12-27T05:25:43.072Z,6.65
2022-12-27T05:28:17.070Z,11.68
2022-12-27T05:30:50.466Z,6.15
2022-12-27T05:33:38.300Z,9.23
2022-12-27T05:36:12.813Z,6.68
2022-12-27T05:38:54.568Z,6.00
2022-12-27T05:41:31.702Z,7.82
2022-12-27T05:44:07.790Z,5.85
2022-12-27T05:46:48.997Z,7.03
2022-12-27T05:49:29.156Z,9.43
2022-12-27T05:52:08.092Z,4.55
2022-12-27T05:55:03.099Z,4.95
2022-12-27T05:57:39.270Z,7.88
2022-12-27T06:00:22.694Z,9.07
2022-12-27T06:02:55.488Z,8.68
2022-12-27T06:05:25.236Z,6.07
2022-12-27T06:08:00.872Z,6.65
2022-12-27T06:10:43.870Z,7.28
2022-12-27T06:13:15.702Z,8.40
2022-12-27T06:16:13.976Z,6.10
2022-12-27T06:19:20.892Z,6.53
2022-12-27T06:22:00.906Z,7.28
2022-12-27T06:24:42.064Z,6.25
2022-12-27T06:27:31.303Z,7.22
2022-12-27T06:30:34.330Z,7.63
2022-12-27T06:33:17.982Z,7.75
2022-12-27T06:35:48.225Z,9.15
2022-12-27T06:38:32.799Z,6.22
2022-12-27T06:41:11.363Z,8.63
2022-12-27T06:43:54.543Z,10.32
2022-12-27T06:46:34.283Z,13.70
2022-12-27T06:49:38.000Z,11.95
2022-12-27T06:52:10.267Z,17.38
2022-12-27T06:54:46.853Z,13.45
2022-12-27T06:58:03.875Z,7.28
2022-12-27T07:01:02.718Z,10.88
2022-12-27T07:04:03.579Z,5.90
2022-12-27T07:06:41.217Z,10.77
2022-12-27T07:09:17.271Z,13.50
2022-12-27T07:12:02.118Z,6.95
2022-12-27T07:14:39.988Z,12.63
2022-12-27T07:42:10.617Z,4.95
2022-12-27T07:55:41.964Z,5.70
2022-12-27T08:59:48.906Z,0.75
2022-12-27T09:02:43.307Z,0.90
2022-12-27T09:05:54.991Z,0.50
2022-12-27T09:12:58.794Z,2.45
2022-12-27T09:16:14.736Z,0.77
2022-12-27T09:22:14.418Z,0.82
2022-12-27T09:25:29.383Z,1.27
2022-12-27T09:28:19.865Z,1.23
2022-12-27T09:31:17.793Z,1.20
2022-12-27T09:34:18.911Z,0.82
2022-12-27T09:37:18.182Z,1.52
2022-12-27T09:41:05.090Z,0.80
2022-12-27T09:43:38.696Z,2.65
2022-12-27T09:47:00.286Z,0.65
2022-12-27T09:50:08.880Z,0.45
2022-12-27T09:53:15.416Z,0.60
2022-12-27T09:57:18.741Z,0.93
2022-12-27T10:00:30.926Z,1.00
2022-12-27T10:03:01.333Z,1.45
2022-12-27T10:05:56.259Z,1.67
2022-12-27T10:08:53.555Z,0.98
2022-12-27T10:11:43.978Z,1.75
2022-12-27T10:15:02.761Z,0.68
2022-12-27T10:18:25.033Z,1.15
2022-12-27T10:21:50.804Z,3.78
2022-12-27T11:18:04.483Z,2.78
2022-12-27T11:47:24.860Z,2.38
2022-12-27T11:54:08.082Z,5.05
2022-12-27T11:56:38.825Z,4.03
2022-12-27T11:59:31.712Z,2.80
2022-12-27T12:02:31.925Z,2.45
2022-12-27T12:05:45.651Z,3.63
2022-12-27T12:21:26.944Z,2.60
2022-12-27T12:30:54.248Z,1.73
2022-12-27T12:33:45.417Z,1.10
2022-12-27T12:36:52.245Z,0.98
2022-12-27T12:40:03.342Z,0.85
2022-12-27T12:43:03.565Z,1.73
2022-12-27T12:46:05.534Z,1.40
2022-12-27T12:49:17.883Z,1.33
2022-12-27T12:52:28.401Z,2.35
2022-12-27T12:55:27.131Z,0.75
2022-12-27T12:58:09.004Z,1.00
2022-12-27T13:01:08.789Z,1.90
2022-12-27T13:04:16.053Z,1.48
2022-12-27T13:07:23.300Z,1.48
2022-12-27T13:10:31.804Z,1.25
2022-12-27T13:13:13.129Z,3.25
2022-12-27T13:16:08.579Z,1.10
2022-12-27T13:18:48.617Z,1.15
2022-12-27T13:21:28.556Z,1.33
2022-12-27T13:24:06.414Z,1.17
2022-12-27T13:26:52.794Z,1.23
2022-12-27T13:29:53.275Z,0.95
2022-12-27T13:32:35.643Z,1.08
2022-12-27T13:35:23.345Z,0.65
2022-12-27T13:38:05.171Z,1.13
2022-12-27T13:41:07.869Z,0.98
2022-12-27T13:43:56.712Z,2.00
2022-12-27T13:46:57.498Z,1.77
2022-12-27T13:50:18.615Z,2.38
2022-12-27T13:53:05.270Z,1.08
2022-12-27T13:55:50.600Z,1.75
2022-12-27T13:58:59.547Z,1.05
2022-12-27T14:01:50.807Z,3.42
2022-12-27T14:04:36.145Z,1.70
2022-12-27T14:07:37.516Z,1.23
2022-12-27T14:10:14.835Z,2.05
2022-12-27T14:12:59.734Z,1.40
2022-12-27T14:15:54.368Z,2.22
2022-12-27T14:18:47.979Z,3.25
2022-12-27T14:21:40.939Z,4.50
2022-12-27T14:24:35.592Z,7.55
2022-12-27T14:28:08.655Z,6.05
2022-12-27T14:32:18.203Z,6.57
2022-12-27T14:35:24.970Z,11.50
2022-12-27T14:38:33.203Z,15.95
2022-12-27T14:42:00.061Z,13.40
2022-12-27T14:45:30.110Z,11.75
2022-12-27T14:48:56.074Z,14.35
2022-12-27T14:52:10.495Z,17.48
2022-12-27T14:55:23.399Z,17.35
2022-12-27T14:58:13.464Z,16.75
2022-12-27T15:01:49.299Z,20.25
2022-12-27T15:05:02.536Z,20.08
2022-12-27T15:20:43.895Z,22.27
2022-12-27T15:24:01.233Z,23.40
2022-12-27T15:35:32.129Z,18.00
2022-12-27T15:42:59.289Z,31.67
2022-12-27T15:45:45.689Z,16.48
2022-12-27T15:48:49.918Z,20.38
2022-12-27T15:51:33.919Z,24.27
2022-12-27T15:54:21.093Z,21.50
2022-12-27T15:57:15.289Z,17.92
2022-12-27T15:59:49.130Z,16.60
2022-12-27T16:02:34.426Z,24.15
2022-12-27T16:05:13.074Z,22.55
2022-12-27T16:07:46.142Z,20.27
2022-12-27T16:10:50.273Z,20.58
2022-12-27T16:13:45.180Z,15.05
2022-12-27T16:16:54.570Z,19.38
2022-12-27T16:20:01.377Z,16.42
2022-12-27T16:22:37.654Z,21.52
2022-12-27T16:25:30.126Z,20.92
2022-12-27T16:28:08.211Z,23.55
2022-12-27T16:30:42.212Z,21.73
2022-12-27T16:33:24.440Z,18.58
2022-12-27T16:36:18.278Z,20.08
2022-12-27T16:38:57.098Z,20.70
2022-12-27T16:41:41.600Z,18.90
2022-12-27T16:44:19.291Z,17.95
2022-12-27T16:47:04.311Z,24.48
2022-12-27T16:49:56.827Z,16.98
2022-12-27T16:53:00.078Z,28.48
2022-12-27T16:55:52.127Z,16.67
2022-12-27T16:58:33.395Z,22.40
2022-12-27T17:01:28.800Z,20.58
2022-12-27T17:03:58.656Z,21.10
2022-12-27T17:06:56.883Z,16.35
2022-12-27T17:09:45.727Z,19.15
2022-12-27T17:12:26.935Z,14.30
2022-12-27T17:15:05.794Z,16.30
2022-12-27T17:17:36.281Z,13.52
2022-12-27T17:20:16.676Z,17.23
2022-12-27T17:22:46.754Z,23.50
2022-12-27T17:25:23.092Z,21.52
2022-12-27T17:28:10.556Z,14.15
2022-12-27T17:30:53.939Z,22.55
2022-12-27T17:33:40.463Z,13.77
2022-12-27T17:36:24.774Z,21.30
2022-12-27T17:39:07.661Z,15.55
2022-12-27T17:42:06.795Z,18.73
2022-12-27T17:44:48.444Z,20.02
2022-12-27T17:47:37.645Z,17.23
2022-12-27T17:50:10.946Z,13.32
2022-12-27T17:52:57.066Z,15.50
2022-12-27T17:55:46.384Z,17.05
2022-12-27T17:58:17.734Z,19.05
2022-12-27T18:00:55.352Z,16.27
2022-12-27T18:03:28.844Z,18.83
2022-12-27T18:05:58.413Z,19.55
2022-12-27T18:08:30.203Z,18.15
2022-12-27T18:11:00.030Z,17.52
2022-12-27T18:13:34.886Z,15.25
2022-12-27T18:16:11.944Z,18.83
2022-12-27T18:18:49.609Z,17.70
2022-12-27T18:21:25.133Z,15.13
2022-12-27T18:23:54.837Z,24.13
2022-12-27T18:26:36.726Z,16.92
2022-12-27T18:29:07.527Z,20.77
2022-12-27T18:31:42.360Z,17.35
2022-12-27T18:34:25.145Z,14.43
2022-12-27T18:37:02.199Z,20.35
2022-12-27T18:39:33.255Z,23.45
2022-12-27T18:42:05.587Z,16.33
2022-12-27T18:44:45.941Z,23.77
2022-12-27T18:47:23.781Z,18.58
2022-12-27T18:49:59.492Z,18.23
2022-12-27T18:52:33.511Z,18.80
2022-12-27T18:55:18.325Z,22.30
2022-12-27T18:57:48.838Z,23.70
2022-12-27T19:00:26.852Z,23.33
2022-12-27T19:03:13.311Z,22.73
2022-12-27T19:05:47.961Z,22.10
2022-12-27T19:08:20.568Z,19.45
2022-12-27T19:10:52.678Z,18.27
2022-12-27T19:13:27.394Z,21.73
2022-12-27T19:15:58.936Z,22.45
2022-12-27T19:18:30.798Z,26.33
2022-12-27T19:21:01.652Z,23.88
2022-12-27T19:23:33.698Z,31.88
2022-12-27T19:26:07.280Z,32.60
2022-12-27T19:28:36.818Z,18.90
2022-12-27T19:31:17.778Z,25.40
2022-12-27T19:33:49.942Z,19.98
2022-12-27T19:36:19.153Z,27.58
2022-12-27T19:38:48.319Z,21.48
2022-12-27T19:41:17.663Z,20.50
2022-12-27T19:43:48.048Z,21.98
2022-12-27T19:46:19.341Z,25.85
2022-12-27T19:49:23.300Z,30.17
2022-12-27T19:51:37.778Z,26.50
2022-12-27T19:54:14.797Z,26.45
2022-12-27T19:56:43.530Z,25.83
2022-12-27T19:59:17.123Z,31.55
2022-12-27T20:01:48.070Z,27.35
2022-12-27T20:04:18.088Z,35.03
2022-12-27T20:06:49.474Z,29.02
2022-12-27T20:09:20.220Z,24.58
2022-12-27T20:11:51.068Z,32.40
2022-12-27T20:14:22.836Z,20.25
2022-12-27T20:16:54.027Z,30.58
2022-12-27T20:19:24.178Z,30.77
2022-12-27T20:21:53.079Z,23.88
2022-12-27T20:24:21.604Z,30.20
2022-12-27T20:26:50.695Z,22.75
2022-12-27T20:29:21.132Z,24.27
2022-12-27T20:31:52.510Z,16.83
2022-12-27T20:34:22.688Z,32.45
2022-12-27T20:36:52.853Z,21.98
2022-12-27T20:39:21.684Z,27.15
2022-12-27T20:41:50.470Z,21.48
2022-12-27T20:44:19.431Z,23.80
2022-12-27T20:46:48.799Z,29.17
2022-12-27T20:49:17.492Z,20.52
2022-12-27T20:51:47.964Z,32.13
2022-12-27T20:54:17.709Z,26.63
2022-12-27T20:56:46.273Z,31.20
2022-12-27T20:59:14.967Z,22.45
2022-12-27T21:01:43.608Z,24.45
2022-12-27T21:04:12.441Z,24.38
2022-12-27T21:06:40.963Z,30.40
2022-12-27T21:09:10.926Z,22.50
2022-12-27T21:11:42.422Z,27.08
2022-12-27T21:14:12.803Z,20.88
2022-12-27T21:16:41.377Z,29.17
2022-12-27T21:19:10.115Z,23.00
2022-12-27T21:21:40.087Z,23.83
2022-12-27T21:24:12.882Z,15.45
2022-12-27T21:26:42.129Z,25.60
2022-12-27T21:29:12.437Z,19.55
2022-12-27T21:31:41.053Z,31.77
2022-12-27T21:34:10.318Z,21.20
2022-12-27T21:36:40.272Z,27.42
2022-12-27T21:39:09.930Z,34.70
2022-12-27T21:41:41.854Z,34.28
2022-12-27T21:44:11.462Z,26.27
2022-12-27T21:46:41.526Z,29.95
2022-12-27T21:49:12.576Z,28.35
2022-12-27T21:51:43.013Z,23.75
2022-12-27T21:54:13.928Z,18.42
2022-12-27T21:56:44.525Z,29.67
2022-12-27T21:59:13.907Z,30.48
2022-12-27T22:01:50.625Z,24.95
2022-12-27T22:04:20.815Z,33.70
2022-12-27T22:06:49.308Z,29.02
2022-12-27T22:09:19.566Z,29.52
2022-12-27T22:11:50.015Z,30.35
2022-12-27T22:14:23.467Z,30.58
2022-12-27T22:16:54.046Z,18.80
2022-12-27T22:19:22.465Z,32.17
2022-12-27T22:21:51.044Z,26.35
2022-12-27T22:24:20.025Z,26.63
2022-12-27T22:26:50.657Z,31.38
2022-12-27T22:29:19.545Z,27.92
2022-12-27T22:31:48.423Z,31.50
2022-12-27T22:34:17.091Z,25.20
2022-12-27T22:36:45.947Z,24.85
2022-12-27T22:39:16.675Z,23.65
2022-12-27T22:41:49.219Z,28.40
2022-12-27T22:44:19.465Z,27.67
2022-12-27T22:49:39.970Z,25.02
2022-12-27T22:52:09.822Z,34.97
2022-12-27T22:55:04.140Z,37.80
2022-12-27T22:57:27.693Z,38.38
2022-12-27T22:59:57.751Z,26.67
2022-12-27T23:02:26.401Z,26.38
2022-12-27T23:04:55.437Z,28.13
2022-12-27T23:08:05.826Z,27.85
2022-12-27T23:10:12.640Z,26.23
2022-12-27T23:12:41.317Z,31.25
2022-12-27T23:15:12.716Z,29.38
2022-12-27T23:17:41.502Z,25.40
2022-12-27T23:20:12.637Z,27.83
2022-12-27T23:22:42.285Z,20.20
2022-12-27T23:25:11.268Z,30.77
2022-12-27T23:27:39.956Z,28.95
2022-12-27T23:30:11.885Z,25.38
2022-12-27T23:32:40.768Z,23.52
2022-12-27T23:35:10.216Z,24.38
2022-12-27T23:37:38.799Z,29.90
2022-12-27T23:40:09.783Z,27.65
2022-12-27T23:42:38.349Z,28.25
2022-12-27T23:45:09.035Z,25.27
2022-12-27T23:47:39.304Z,25.15
2022-12-27T23:50:09.013Z,23.98
2022-12-27T23:52:37.636Z,25.60
2022-12-27T23:55:07.280Z,16.42
2022-12-27T23:57:36.114Z,23.70
